sensor_id;sensor_type;location;lat;lon;timestamp;P1;durP1;ratioP1;P2;durP2;ratioP2
56267;SDS011;42175;46.930;9.532;2022-12-20T00:02:05;2.63;;;2.00;;
56267;SDS011;42175;46.930;9.532;2022-12-20T00:04:31;4.32;;;1.73;;
56267;SDS011;42175;46.930;9.532;2022-12-20T00:06:56;5.55;;;1.70;;
56267;SDS011;42175;46.930;9.532;2022-12-20T00:09:22;3.00;;;1.88;;
56267;SDS011;42175;46.930;9.532;2022-12-20T00:11:49;4.10;;;2.00;;
56267;SDS011;42175;46.930;9.532;2022-12-20T00:14:15;2.67;;;1.92;;
56267;SDS011;42175;46.930;9.532;2022-12-20T00:16:41;2.40;;;1.92;;
56267;SDS011;42175;46.930;9.532;2022-12-20T00:19:08;2.40;;;1.50;;
56267;SDS011;42175;46.930;9.532;2022-12-20T00:21:35;3.00;;;1.90;;
56267;SDS011;42175;46.930;9.532;2022-12-20T00:24:02;2.35;;;1.63;;
56267;SDS011;42175;46.930;9.532;2022-12-20T00:26:30;2.40;;;1.70;;
56267;SDS011;42175;46.930;9.532;2022-12-20T00:28:57;4.15;;;2.13;;
56267;SDS011;42175;46.930;9.532;2022-12-20T00:31:25;3.70;;;1.75;;
56267;SDS011;42175;46.930;9.532;2022-12-20T00:33:53;4.82;;;1.70;;
56267;SDS011;42175;46.930;9.532;2022-12-20T00:36:21;2.45;;;1.73;;
56267;SDS011;42175;46.930;9.532;2022-12-20T00:38:49;5.68;;;2.05;;
56267;SDS011;42175;46.930;9.532;2022-12-20T00:41:17;2.95;;;1.80;;
56267;SDS011;42175;46.930;9.532;2022-12-20T00:43:45;3.53;;;2.08;;
56267;SDS011;42175;46.930;9.532;2022-12-20T00:46:12;2.53;;;1.70;;
56267;SDS011;42175;46.930;9.532;2022-12-20T00:48:39;2.63;;;1.70;;
56267;SDS011;42175;46.930;9.532;2022-12-20T00:51:06;5.35;;;2.00;;
56267;SDS011;42175;46.930;9.532;2022-12-20T00:53:34;3.83;;;1.90;;
56267;SDS011;42175;46.930;9.532;2022-12-20T00:56:01;2.55;;;1.80;;
56267;SDS011;42175;46.930;9.532;2022-12-20T00:58:28;2.38;;;1.70;;
56267;SDS011;42175;46.930;9.532;2022-12-20T01:00:53;3.97;;;2.05;;
56267;SDS011;42175;46.930;9.532;2022-12-20T01:03:20;6.55;;;1.88;;
56267;SDS011;42175;46.930;9.532;2022-12-20T01:05:50;3.78;;;2.10;;
56267;SDS011;42175;46.930;9.532;2022-12-20T01:08:17;2.22;;;1.63;;
56267;SDS011;42175;46.930;9.532;2022-12-20T01:10:43;3.53;;;1.50;;
56267;SDS011;42175;46.930;9.532;2022-12-20T01:13:09;2.30;;;1.67;;
56267;SDS011;42175;46.930;9.532;2022-12-20T01:15:34;2.35;;;1.42;;
56267;SDS011;42175;46.930;9.532;2022-12-20T01:18:00;6.55;;;1.83;;
56267;SDS011;42175;46.930;9.532;2022-12-20T01:20:26;2.30;;;1.80;;
56267;SDS011;42175;46.930;9.532;2022-12-20T01:22:52;2.95;;;1.65;;
56267;SDS011;42175;46.930;9.532;2022-12-20T01:25:17;2.80;;;1.85;;
56267;SDS011;42175;46.930;9.532;2022-12-20T01:27:43;2.35;;;1.70;;
56267;SDS011;42175;46.930;9.532;2022-12-20T01:30:09;3.85;;;1.67;;
56267;SDS011;42175;46.930;9.532;2022-12-20T01:32:35;3.92;;;2.33;;
56267;SDS011;42175;46.930;9.532;2022-12-20T01:35:01;2.38;;;1.63;;
56267;SDS011;42175;46.930;9.532;2022-12-20T01:37:27;2.40;;;1.67;;
56267;SDS011;42175;46.930;9.532;2022-12-20T01:39:53;2.85;;;1.40;;
56267;SDS011;42175;46.930;9.532;2022-12-20T01:42:18;2.38;;;1.90;;
56267;SDS011;42175;46.930;9.532;2022-12-20T01:47:10;2.47;;;1.65;;
56267;SDS011;42175;46.930;9.532;2022-12-20T01:49:38;2.50;;;1.70;;
56267;SDS011;42175;46.930;9.532;2022-12-20T01:52:10;2.55;;;1.73;;
56267;SDS011;42175;46.930;9.532;2022-12-20T01:57:16;1.83;;;1.48;;
56267;SDS011;42175;46.930;9.532;2022-12-20T01:59:49;2.33;;;1.58;;
56267;SDS011;42175;46.930;9.532;2022-12-20T02:02:16;2.38;;;1.70;;
56267;SDS011;42175;46.930;9.532;2022-12-20T02:04:42;3.20;;;1.65;;
56267;SDS011;42175;46.930;9.532;2022-12-20T02:07:08;1.67;;;1.35;;
56267;SDS011;42175;46.930;9.532;2022-12-20T02:09:39;3.78;;;1.70;;
56267;SDS011;42175;46.930;9.532;2022-12-20T02:12:09;2.22;;;1.60;;
56267;SDS011;42175;46.930;9.532;2022-12-20T02:22:40;3.58;;;1.77;;
56267;SDS011;42175;46.930;9.532;2022-12-20T02:31:13;2.10;;;1.60;;
56267;SDS011;42175;46.930;9.532;2022-12-20T02:33:43;3.05;;;1.70;;
56267;SDS011;42175;46.930;9.532;2022-12-20T02:36:17;3.03;;;1.70;;
56267;SDS011;42175;46.930;9.532;2022-12-20T02:38:43;2.78;;;1.50;;
56267;SDS011;42175;46.930;9.532;2022-12-20T02:43:38;2.63;;;1.70;;
56267;SDS011;42175;46.930;9.532;2022-12-20T02:46:25;2.08;;;1.40;;
56267;SDS011;42175;46.930;9.532;2022-12-20T02:48:52;2.05;;;1.40;;
56267;SDS011;42175;46.930;9.532;2022-12-20T02:51:22;2.20;;;1.60;;
56267;SDS011;42175;46.930;9.532;2022-12-20T02:53:52;3.85;;;1.52;;
56267;SDS011;42175;46.930;9.532;2022-12-20T02:58:48;2.90;;;1.98;;
56267;SDS011;42175;46.930;9.532;2022-12-20T03:01:27;2.60;;;1.48;;
56267;SDS011;42175;46.930;9.532;2022-12-20T03:04:09;4.00;;;1.65;;
56267;SDS011;42175;46.930;9.532;2022-12-20T03:06:37;7.25;;;2.00;;
56267;SDS011;42175;46.930;9.532;2022-12-20T03:09:03;4.55;;;1.60;;
56267;SDS011;42175;46.930;9.532;2022-12-20T03:11:29;2.05;;;1.55;;
56267;SDS011;42175;46.930;9.532;2022-12-20T03:13:55;2.38;;;1.42;;
56267;SDS011;42175;46.930;9.532;2022-12-20T03:16:21;6.93;;;1.80;;
56267;SDS011;42175;46.930;9.532;2022-12-20T03:18:47;2.53;;;1.50;;
56267;SDS011;42175;46.930;9.532;2022-12-20T03:21:12;2.13;;;1.52;;
56267;SDS011;42175;46.930;9.532;2022-12-20T03:23:38;5.47;;;1.70;;
56267;SDS011;42175;46.930;9.532;2022-12-20T03:26:04;2.40;;;1.60;;
56267;SDS011;42175;46.930;9.532;2022-12-20T03:28:29;3.08;;;1.65;;
56267;SDS011;42175;46.930;9.532;2022-12-20T03:30:55;3.92;;;1.63;;
56267;SDS011;42175;46.930;9.532;2022-12-20T03:33:21;2.95;;;1.63;;
56267;SDS011;42175;46.930;9.532;2022-12-20T03:35:47;2.20;;;1.65;;
56267;SDS011;42175;46.930;9.532;2022-12-20T03:38:13;1.90;;;1.50;;
56267;SDS011;42175;46.930;9.532;2022-12-20T03:40:38;2.50;;;1.45;;
56267;SDS011;42175;46.930;9.532;2022-12-20T03:43:04;3.08;;;1.27;;
56267;SDS011;42175;46.930;9.532;2022-12-20T03:45:30;4.78;;;1.60;;
56267;SDS011;42175;46.930;9.532;2022-12-20T03:47:55;3.28;;;1.45;;
56267;SDS011;42175;46.930;9.532;2022-12-20T03:50:21;2.85;;;1.48;;
56267;SDS011;42175;46.930;9.532;2022-12-20T03:52:47;4.47;;;1.50;;
56267;SDS011;42175;46.930;9.532;2022-12-20T03:55:12;3.38;;;1.60;;
56267;SDS011;42175;46.930;9.532;2022-12-20T03:57:38;1.98;;;1.35;;
56267;SDS011;42175;46.930;9.532;2022-12-20T04:00:06;5.32;;;2.80;;
56267;SDS011;42175;46.930;9.532;2022-12-20T04:02:32;4.40;;;1.35;;
56267;SDS011;42175;46.930;9.532;2022-12-20T04:04:57;5.22;;;1.70;;
56267;SDS011;42175;46.930;9.532;2022-12-20T04:07:23;4.93;;;1.50;;
56267;SDS011;42175;46.930;9.532;2022-12-20T04:09:49;2.20;;;1.45;;
56267;SDS011;42175;46.930;9.532;2022-12-20T04:12:14;2.60;;;1.50;;
56267;SDS011;42175;46.930;9.532;2022-12-20T04:14:40;2.08;;;1.45;;
56267;SDS011;42175;46.930;9.532;2022-12-20T04:17:06;3.63;;;1.60;;
56267;SDS011;42175;46.930;9.532;2022-12-20T04:19:31;1.40;;;1.20;;
56267;SDS011;42175;46.930;9.532;2022-12-20T04:21:57;2.28;;;1.67;;
56267;SDS011;42175;46.930;9.532;2022-12-20T04:24:23;3.20;;;1.73;;
56267;SDS011;42175;46.930;9.532;2022-12-20T04:26:49;5.30;;;1.27;;
56267;SDS011;42175;46.930;9.532;2022-12-20T04:29:14;1.52;;;1.10;;
56267;SDS011;42175;46.930;9.532;2022-12-20T04:31:40;2.45;;;1.60;;
56267;SDS011;42175;46.930;9.532;2022-12-20T04:34:06;2.30;;;1.45;;
56267;SDS011;42175;46.930;9.532;2022-12-20T04:36:31;4.32;;;1.63;;
56267;SDS011;42175;46.930;9.532;2022-12-20T04:38:57;2.28;;;1.50;;
56267;SDS011;42175;46.930;9.532;2022-12-20T04:41:23;2.85;;;1.35;;
56267;SDS011;42175;46.930;9.532;2022-12-20T04:43:51;3.40;;;1.30;;
56267;SDS011;42175;46.930;9.532;2022-12-20T04:46:18;4.57;;;1.52;;
56267;SDS011;42175;46.930;9.532;2022-12-20T04:48:45;2.40;;;1.30;;
56267;SDS011;42175;46.930;9.532;2022-12-20T04:51:11;2.20;;;1.35;;
56267;SDS011;42175;46.930;9.532;2022-12-20T04:53:37;2.17;;;1.50;;
56267;SDS011;42175;46.930;9.532;2022-12-20T04:56:12;3.28;;;1.73;;
56267;SDS011;42175;46.930;9.532;2022-12-20T04:58:40;2.08;;;1.20;;
56267;SDS011;42175;46.930;9.532;2022-12-20T05:01:06;2.35;;;1.35;;
56267;SDS011;42175;46.930;9.532;2022-12-20T05:03:32;2.58;;;1.60;;
56267;SDS011;42175;46.930;9.532;2022-12-20T05:05:57;2.63;;;1.60;;
56267;SDS011;42175;46.930;9.532;2022-12-20T05:08:23;1.45;;;1.10;;
56267;SDS011;42175;46.930;9.532;2022-12-20T05:10:49;1.83;;;1.30;;
56267;SDS011;42175;46.930;9.532;2022-12-20T05:13:15;2.00;;;1.35;;
56267;SDS011;42175;46.930;9.532;2022-12-20T05:15:41;2.10;;;1.30;;
56267;SDS011;42175;46.930;9.532;2022-12-20T05:18:07;1.63;;;1.13;;
56267;SDS011;42175;46.930;9.532;2022-12-20T05:20:33;3.25;;;1.50;;
56267;SDS011;42175;46.930;9.532;2022-12-20T05:22:59;5.55;;;1.30;;
56267;SDS011;42175;46.930;9.532;2022-12-20T05:26:03;3.15;;;1.40;;
56267;SDS011;42175;46.930;9.532;2022-12-20T05:28:41;1.75;;;1.30;;
56267;SDS011;42175;46.930;9.532;2022-12-20T05:31:07;2.00;;;1.25;;
56267;SDS011;42175;46.930;9.532;2022-12-20T05:33:33;3.15;;;1.45;;
56267;SDS011;42175;46.930;9.532;2022-12-20T05:35:59;5.18;;;1.45;;
56267;SDS011;42175;46.930;9.532;2022-12-20T05:38:24;3.45;;;1.70;;
56267;SDS011;42175;46.930;9.532;2022-12-20T05:40:50;7.70;;;5.32;;
56267;SDS011;42175;46.930;9.532;2022-12-20T05:43:16;5.22;;;3.53;;
56267;SDS011;42175;46.930;9.532;2022-12-20T05:45:46;6.63;;;3.50;;
56267;SDS011;42175;46.930;9.532;2022-12-20T05:48:13;6.40;;;2.92;;
56267;SDS011;42175;46.930;9.532;2022-12-20T05:50:40;4.95;;;2.70;;
56267;SDS011;42175;46.930;9.532;2022-12-20T05:53:08;6.22;;;2.35;;
56267;SDS011;42175;46.930;9.532;2022-12-20T05:55:35;5.22;;;2.35;;
56267;SDS011;42175;46.930;9.532;2022-12-20T05:58:01;3.25;;;2.15;;
56267;SDS011;42175;46.930;9.532;2022-12-20T06:00:27;4.57;;;2.00;;
56267;SDS011;42175;46.930;9.532;2022-12-20T06:02:52;8.40;;;2.38;;
56267;SDS011;42175;46.930;9.532;2022-12-20T06:05:18;4.78;;;2.40;;
56267;SDS011;42175;46.930;9.532;2022-12-20T06:07:44;4.65;;;2.35;;
56267;SDS011;42175;46.930;9.532;2022-12-20T06:10:09;9.98;;;2.45;;
56267;SDS011;42175;46.930;9.532;2022-12-20T06:12:35;10.85;;;2.65;;
56267;SDS011;42175;46.930;9.532;2022-12-20T06:15:01;3.50;;;2.13;;
56267;SDS011;42175;46.930;9.532;2022-12-20T06:17:27;8.27;;;2.60;;
56267;SDS011;42175;46.930;9.532;2022-12-20T06:19:54;4.82;;;2.30;;
56267;SDS011;42175;46.930;9.532;2022-12-20T06:22:20;5.03;;;2.40;;
56267;SDS011;42175;46.930;9.532;2022-12-20T06:24:47;5.88;;;2.25;;
56267;SDS011;42175;46.930;9.532;2022-12-20T06:27:12;3.72;;;1.77;;
56267;SDS011;42175;46.930;9.532;2022-12-20T06:29:38;3.10;;;1.65;;
56267;SDS011;42175;46.930;9.532;2022-12-20T06:32:04;3.10;;;1.60;;
56267;SDS011;42175;46.930;9.532;2022-12-20T06:34:30;4.30;;;2.28;;
56267;SDS011;42175;46.930;9.532;2022-12-20T06:36:56;5.00;;;2.38;;
56267;SDS011;42175;46.930;9.532;2022-12-20T06:39:22;6.80;;;3.20;;
56267;SDS011;42175;46.930;9.532;2022-12-20T06:41:48;5.50;;;2.95;;
56267;SDS011;42175;46.930;9.532;2022-12-20T06:44:13;6.75;;;4.03;;
56267;SDS011;42175;46.930;9.532;2022-12-20T06:46:39;6.70;;;4.25;;
56267;SDS011;42175;46.930;9.532;2022-12-20T06:49:05;10.15;;;3.22;;
56267;SDS011;42175;46.930;9.532;2022-12-20T06:51:30;3.85;;;2.90;;
56267;SDS011;42175;46.930;9.532;2022-12-20T06:53:56;6.97;;;3.53;;
56267;SDS011;42175;46.930;9.532;2022-12-20T06:56:22;3.83;;;2.75;;
56267;SDS011;42175;46.930;9.532;2022-12-20T06:58:47;3.90;;;2.90;;
56267;SDS011;42175;46.930;9.532;2022-12-20T07:01:13;4.72;;;2.85;;
56267;SDS011;42175;46.930;9.532;2022-12-20T07:03:39;4.43;;;3.17;;
56267;SDS011;42175;46.930;9.532;2022-12-20T07:06:04;5.65;;;3.58;;
56267;SDS011;42175;46.930;9.532;2022-12-20T07:08:30;4.78;;;2.72;;
56267;SDS011;42175;46.930;9.532;2022-12-20T07:11:01;14.02;;;3.65;;
56267;SDS011;42175;46.930;9.532;2022-12-20T07:13:29;6.30;;;1.90;;
56267;SDS011;42175;46.930;9.532;2022-12-20T07:15:58;4.65;;;2.22;;
56267;SDS011;42175;46.930;9.532;2022-12-20T07:18:27;4.35;;;3.05;;
56267;SDS011;42175;46.930;9.532;2022-12-20T07:20:53;4.82;;;3.30;;
56267;SDS011;42175;46.930;9.532;2022-12-20T07:23:23;3.58;;;1.92;;
56267;SDS011;42175;46.930;9.532;2022-12-20T07:25:52;3.97;;;1.58;;
56267;SDS011;42175;46.930;9.532;2022-12-20T07:28:19;5.18;;;1.52;;
56267;SDS011;42175;46.930;9.532;2022-12-20T07:30:45;1.27;;;0.90;;
56267;SDS011;42175;46.930;9.532;2022-12-20T07:33:10;1.50;;;0.90;;
56267;SDS011;42175;46.930;9.532;2022-12-20T07:35:36;2.72;;;1.10;;
56267;SDS011;42175;46.930;9.532;2022-12-20T07:38:02;2.53;;;0.80;;
56267;SDS011;42175;46.930;9.532;2022-12-20T07:40:27;4.05;;;1.20;;
56267;SDS011;42175;46.930;9.532;2022-12-20T07:42:53;4.30;;;1.38;;
56267;SDS011;42175;46.930;9.532;2022-12-20T07:45:19;2.13;;;1.30;;
56267;SDS011;42175;46.930;9.532;2022-12-20T07:47:45;2.38;;;1.17;;
56267;SDS011;42175;46.930;9.532;2022-12-20T07:50:10;2.22;;;1.60;;
56267;SDS011;42175;46.930;9.532;2022-12-20T07:52:36;3.80;;;2.00;;
56267;SDS011;42175;46.930;9.532;2022-12-20T07:55:04;5.80;;;2.42;;
56267;SDS011;42175;46.930;9.532;2022-12-20T07:57:52;3.03;;;2.45;;
56267;SDS011;42175;46.930;9.532;2022-12-20T08:00:21;2.63;;;1.92;;
56267;SDS011;42175;46.930;9.532;2022-12-20T08:05:22;3.30;;;2.30;;
56267;SDS011;42175;46.930;9.532;2022-12-20T08:07:48;5.72;;;2.58;;
56267;SDS011;42175;46.930;9.532;2022-12-20T08:10:15;6.22;;;3.13;;
56267;SDS011;42175;46.930;9.532;2022-12-20T08:12:44;6.25;;;3.45;;
56267;SDS011;42175;46.930;9.532;2022-12-20T08:15:12;7.80;;;4.07;;
56267;SDS011;42175;46.930;9.532;2022-12-20T08:17:38;8.90;;;3.95;;
56267;SDS011;42175;46.930;9.532;2022-12-20T08:20:04;7.32;;;4.10;;
56267;SDS011;42175;46.930;9.532;2022-12-20T08:22:32;5.15;;;3.40;;
56267;SDS011;42175;46.930;9.532;2022-12-20T08:24:58;14.90;;;4.43;;
56267;SDS011;42175;46.930;9.532;2022-12-20T08:27:24;8.82;;;3.70;;
56267;SDS011;42175;46.930;9.532;2022-12-20T08:29:50;13.15;;;4.03;;
56267;SDS011;42175;46.930;9.532;2022-12-20T08:32:15;7.00;;;3.30;;
56267;SDS011;42175;46.930;9.532;2022-12-20T08:34:41;9.20;;;3.25;;
56267;SDS011;42175;46.930;9.532;2022-12-20T08:37:07;5.55;;;3.30;;
56267;SDS011;42175;46.930;9.532;2022-12-20T08:39:33;8.40;;;3.53;;
56267;SDS011;42175;46.930;9.532;2022-12-20T08:41:58;7.03;;;2.60;;
56267;SDS011;42175;46.930;9.532;2022-12-20T08:44:24;15.48;;;3.03;;
56267;SDS011;42175;46.930;9.532;2022-12-20T08:46:50;8.30;;;3.03;;
56267;SDS011;42175;46.930;9.532;2022-12-20T08:49:16;7.28;;;3.28;;
56267;SDS011;42175;46.930;9.532;2022-12-20T08:51:42;10.25;;;2.95;;
56267;SDS011;42175;46.930;9.532;2022-12-20T08:54:07;6.15;;;2.80;;
56267;SDS011;42175;46.930;9.532;2022-12-20T08:56:33;7.97;;;3.22;;
56267;SDS011;42175;46.930;9.532;2022-12-20T08:58:59;6.20;;;2.90;;
56267;SDS011;42175;46.930;9.532;2022-12-20T09:01:24;5.32;;;2.97;;
56267;SDS011;42175;46.930;9.532;2022-12-20T09:03:51;5.97;;;2.90;;
56267;SDS011;42175;46.930;9.532;2022-12-20T09:06:18;6.97;;;3.28;;
56267;SDS011;42175;46.930;9.532;2022-12-20T09:08:46;10.48;;;3.28;;
56267;SDS011;42175;46.930;9.532;2022-12-20T09:11:19;10.18;;;4.43;;
56267;SDS011;42175;46.930;9.532;2022-12-20T09:13:52;13.57;;;4.53;;
56267;SDS011;42175;46.930;9.532;2022-12-20T09:16:21;9.43;;;4.70;;
56267;SDS011;42175;46.930;9.532;2022-12-20T09:18:51;7.95;;;4.35;;
56267;SDS011;42175;46.930;9.532;2022-12-20T09:21:19;7.82;;;4.25;;
56267;SDS011;42175;46.930;9.532;2022-12-20T09:23:45;6.63;;;3.40;;
56267;SDS011;42175;46.930;9.532;2022-12-20T09:26:12;9.20;;;3.45;;
56267;SDS011;42175;46.930;9.532;2022-12-20T09:28:39;5.63;;;3.65;;
56267;SDS011;42175;46.930;9.532;2022-12-20T09:31:07;5.60;;;3.35;;
56267;SDS011;42175;46.930;9.532;2022-12-20T09:33:37;7.88;;;3.15;;
56267;SDS011;42175;46.930;9.532;2022-12-20T09:36:04;6.25;;;3.05;;
56267;SDS011;42175;46.930;9.532;2022-12-20T09:38:30;8.70;;;3.45;;
56267;SDS011;42175;46.930;9.532;2022-12-20T09:40:57;4.90;;;3.00;;
56267;SDS011;42175;46.930;9.532;2022-12-20T09:43:28;7.20;;;3.40;;
56267;SDS011;42175;46.930;9.532;2022-12-20T09:45:55;8.13;;;3.03;;
56267;SDS011;42175;46.930;9.532;2022-12-20T09:48:38;7.88;;;2.92;;
56267;SDS011;42175;46.930;9.532;2022-12-20T09:59:04;7.90;;;3.40;;
56267;SDS011;42175;46.930;9.532;2022-12-20T10:01:35;8.52;;;2.83;;
56267;SDS011;42175;46.930;9.532;2022-12-20T10:04:03;8.40;;;2.65;;
56267;SDS011;42175;46.930;9.532;2022-12-20T10:12:37;6.05;;;3.33;;
56267;SDS011;42175;46.930;9.532;2022-12-20T10:15:26;4.97;;;3.45;;
56267;SDS011;42175;46.930;9.532;2022-12-20T10:20:45;4.28;;;2.97;;
56267;SDS011;42175;46.930;9.532;2022-12-20T10:26:10;7.15;;;3.05;;
56267;SDS011;42175;46.930;9.532;2022-12-20T10:28:37;6.25;;;2.78;;
56267;SDS011;42175;46.930;9.532;2022-12-20T10:31:11;13.95;;;2.72;;
56267;SDS011;42175;46.930;9.532;2022-12-20T10:33:38;9.30;;;3.20;;
56267;SDS011;42175;46.930;9.532;2022-12-20T10:36:18;6.72;;;3.17;;
56267;SDS011;42175;46.930;9.532;2022-12-20T10:38:45;6.50;;;2.33;;
56267;SDS011;42175;46.930;9.532;2022-12-20T10:41:22;8.27;;;3.28;;
56267;SDS011;42175;46.930;9.532;2022-12-20T10:46:35;9.90;;;3.63;;
56267;SDS011;42175;46.930;9.532;2022-12-20T10:49:24;9.63;;;3.72;;
56267;SDS011;42175;46.930;9.532;2022-12-20T10:51:53;8.05;;;3.17;;
56267;SDS011;42175;46.930;9.532;2022-12-20T10:54:22;9.00;;;3.10;;
56267;SDS011;42175;46.930;9.532;2022-12-20T10:56:55;6.20;;;2.75;;
56267;SDS011;42175;46.930;9.532;2022-12-20T10:59:33;9.95;;;3.13;;
56267;SDS011;42175;46.930;9.532;2022-12-20T11:02:07;11.70;;;3.35;;
56267;SDS011;42175;46.930;9.532;2022-12-20T11:05:20;10.27;;;4.03;;
56267;SDS011;42175;46.930;9.532;2022-12-20T11:07:33;17.20;;;4.00;;
56267;SDS011;42175;46.930;9.532;2022-12-20T11:10:01;12.43;;;3.20;;
56267;SDS011;42175;46.930;9.532;2022-12-20T11:12:57;8.32;;;3.80;;
56267;SDS011;42175;46.930;9.532;2022-12-20T11:17:55;7.72;;;3.00;;
56267;SDS011;42175;46.930;9.532;2022-12-20T11:23:42;10.73;;;3.30;;
56267;SDS011;42175;46.930;9.532;2022-12-20T11:31:55;5.88;;;2.95;;
56267;SDS011;42175;46.930;9.532;2022-12-20T11:39:30;5.15;;;2.78;;
56267;SDS011;42175;46.930;9.532;2022-12-20T11:42:12;3.20;;;2.20;;
56267;SDS011;42175;46.930;9.532;2022-12-20T11:45:09;5.93;;;2.75;;
56267;SDS011;42175;46.930;9.532;2022-12-20T11:48:15;5.78;;;2.60;;
56267;SDS011;42175;46.930;9.532;2022-12-20T11:53:39;7.97;;;3.38;;
56267;SDS011;42175;46.930;9.532;2022-12-20T11:56:23;6.72;;;3.15;;
56267;SDS011;42175;46.930;9.532;2022-12-20T11:59:02;7.65;;;2.90;;
56267;SDS011;42175;46.930;9.532;2022-12-20T12:01:48;8.15;;;2.80;;
56267;SDS011;42175;46.930;9.532;2022-12-20T12:04:25;7.18;;;2.65;;
56267;SDS011;42175;46.930;9.532;2022-12-20T12:07:00;8.23;;;3.35;;
56267;SDS011;42175;46.930;9.532;2022-12-20T12:17:12;3.88;;;2.40;;
56267;SDS011;42175;46.930;9.532;2022-12-20T12:19:45;4.60;;;2.80;;
56267;SDS011;42175;46.930;9.532;2022-12-20T12:22:15;8.02;;;2.97;;
56267;SDS011;42175;46.930;9.532;2022-12-20T12:24:50;6.03;;;2.65;;
56267;SDS011;42175;46.930;9.532;2022-12-20T12:27:22;9.65;;;3.47;;
56267;SDS011;42175;46.930;9.532;2022-12-20T12:29:50;5.45;;;2.42;;
56267;SDS011;42175;46.930;9.532;2022-12-20T12:45:33;5.60;;;2.50;;
56267;SDS011;42175;46.930;9.532;2022-12-20T12:48:12;5.50;;;2.50;;
56267;SDS011;42175;46.930;9.532;2022-12-20T12:50:58;7.40;;;2.75;;
56267;SDS011;42175;46.930;9.532;2022-12-20T13:04:30;4.03;;;2.30;;
56267;SDS011;42175;46.930;9.532;2022-12-20T13:07:25;6.20;;;2.78;;
56267;SDS011;42175;46.930;9.532;2022-12-20T13:10:01;6.38;;;3.00;;
56267;SDS011;42175;46.930;9.532;2022-12-20T13:20:19;10.80;;;2.78;;
56267;SDS011;42175;46.930;9.532;2022-12-20T13:33:45;11.70;;;2.92;;
56267;SDS011;42175;46.930;9.532;2022-12-20T13:44:07;12.70;;;3.65;;
56267;SDS011;42175;46.930;9.532;2022-12-20T13:46:49;7.15;;;3.22;;
56267;SDS011;42175;46.930;9.532;2022-12-20T13:49:42;9.85;;;3.25;;
56267;SDS011;42175;46.930;9.532;2022-12-20T13:54:41;6.65;;;2.55;;
56267;SDS011;42175;46.930;9.532;2022-12-20T13:57:16;9.05;;;3.55;;
56267;SDS011;42175;46.930;9.532;2022-12-20T13:59:48;6.43;;;2.78;;
56267;SDS011;42175;46.930;9.532;2022-12-20T14:02:19;7.55;;;3.20;;
56267;SDS011;42175;46.930;9.532;2022-12-20T14:07:39;4.90;;;2.75;;
56267;SDS011;42175;46.930;9.532;2022-12-20T14:10:24;6.93;;;3.00;;
56267;SDS011;42175;46.930;9.532;2022-12-20T14:12:53;7.20;;;2.85;;
56267;SDS011;42175;46.930;9.532;2022-12-20T14:15:27;7.25;;;3.33;;
56267;SDS011;42175;46.930;9.532;2022-12-20T14:18:03;7.65;;;3.42;;
56267;SDS011;42175;46.930;9.532;2022-12-20T14:20:32;9.18;;;3.50;;
56267;SDS011;42175;46.930;9.532;2022-12-20T14:23:04;11.10;;;3.22;;
56267;SDS011;42175;46.930;9.532;2022-12-20T14:25:42;6.57;;;3.58;;
56267;SDS011;42175;46.930;9.532;2022-12-20T14:28:16;5.50;;;3.13;;
56267;SDS011;42175;46.930;9.532;2022-12-20T14:30:46;5.18;;;2.88;;
56267;SDS011;42175;46.930;9.532;2022-12-20T14:33:18;8.40;;;3.20;;
56267;SDS011;42175;46.930;9.532;2022-12-20T14:38:39;33.28;;;3.30;;
56267;SDS011;42175;46.930;9.532;2022-12-20T14:46:38;8.10;;;2.53;;
56267;SDS011;42175;46.930;9.532;2022-12-20T14:51:46;6.80;;;2.40;;
56267;SDS011;42175;46.930;9.532;2022-12-20T14:54:17;6.05;;;2.53;;
56267;SDS011;42175;46.930;9.532;2022-12-20T14:56:47;7.40;;;2.70;;
56267;SDS011;42175;46.930;9.532;2022-12-20T14:59:16;10.88;;;3.38;;
56267;SDS011;42175;46.930;9.532;2022-12-20T15:01:50;11.48;;;2.67;;
56267;SDS011;42175;46.930;9.532;2022-12-20T15:04:32;4.70;;;2.63;;
56267;SDS011;42175;46.930;9.532;2022-12-20T15:07:00;8.00;;;3.00;;
56267;SDS011;42175;46.930;9.532;2022-12-20T15:09:26;7.03;;;2.03;;
56267;SDS011;42175;46.930;9.532;2022-12-20T15:11:53;7.35;;;2.53;;
56267;SDS011;42175;46.930;9.532;2022-12-20T15:16:58;6.80;;;2.60;;
56267;SDS011;42175;46.930;9.532;2022-12-20T15:19:23;8.02;;;3.28;;
56267;SDS011;42175;46.930;9.532;2022-12-20T15:21:49;7.00;;;3.22;;
56267;SDS011;42175;46.930;9.532;2022-12-20T15:24:17;5.03;;;2.40;;
56267;SDS011;42175;46.930;9.532;2022-12-20T15:26:46;7.10;;;2.55;;
56267;SDS011;42175;46.930;9.532;2022-12-20T15:29:16;7.78;;;2.92;;
56267;SDS011;42175;46.930;9.532;2022-12-20T15:31:50;11.00;;;2.97;;
56267;SDS011;42175;46.930;9.532;2022-12-20T15:34:34;5.63;;;2.40;;
56267;SDS011;42175;46.930;9.532;2022-12-20T15:37:02;8.75;;;2.55;;
56267;SDS011;42175;46.930;9.532;2022-12-20T15:39:29;5.05;;;2.58;;
56267;SDS011;42175;46.930;9.532;2022-12-20T15:41:55;3.85;;;2.22;;
56267;SDS011;42175;46.930;9.532;2022-12-20T15:44:25;7.72;;;2.95;;
56267;SDS011;42175;46.930;9.532;2022-12-20T15:46:53;4.85;;;2.85;;
56267;SDS011;42175;46.930;9.532;2022-12-20T15:49:20;12.35;;;3.60;;
56267;SDS011;42175;46.930;9.532;2022-12-20T15:51:48;5.38;;;2.08;;
56267;SDS011;42175;46.930;9.532;2022-12-20T15:56:46;4.85;;;2.50;;
56267;SDS011;42175;46.930;9.532;2022-12-20T15:59:12;6.10;;;2.70;;
56267;SDS011;42175;46.930;9.532;2022-12-20T16:01:38;5.13;;;2.55;;
56267;SDS011;42175;46.930;9.532;2022-12-20T16:04:04;10.45;;;4.63;;
56267;SDS011;42175;46.930;9.532;2022-12-20T16:06:30;6.93;;;2.30;;
56267;SDS011;42175;46.930;9.532;2022-12-20T16:08:57;6.80;;;2.58;;
56267;SDS011;42175;46.930;9.532;2022-12-20T16:11:27;5.65;;;2.25;;
56267;SDS011;42175;46.930;9.532;2022-12-20T16:13:57;7.47;;;2.80;;
56267;SDS011;42175;46.930;9.532;2022-12-20T16:16:29;5.68;;;2.90;;
56267;SDS011;42175;46.930;9.532;2022-12-20T16:21:25;8.07;;;2.50;;
56267;SDS011;42175;46.930;9.532;2022-12-20T16:23:52;5.38;;;2.70;;
56267;SDS011;42175;46.930;9.532;2022-12-20T16:26:22;5.20;;;2.17;;
56267;SDS011;42175;46.930;9.532;2022-12-20T16:28:50;5.55;;;2.45;;
56267;SDS011;42175;46.930;9.532;2022-12-20T16:31:30;9.55;;;3.17;;
56267;SDS011;42175;46.930;9.532;2022-12-20T16:33:58;16.10;;;3.05;;
56267;SDS011;42175;46.930;9.532;2022-12-20T16:36:27;20.58;;;4.53;;
56267;SDS011;42175;46.930;9.532;2022-12-20T16:38:53;16.13;;;4.40;;
56267;SDS011;42175;46.930;9.532;2022-12-20T16:43:47;35.53;;;4.90;;
56267;SDS011;42175;46.930;9.532;2022-12-20T16:46:14;22.05;;;4.57;;
56267;SDS011;42175;46.930;9.532;2022-12-20T16:48:41;15.65;;;4.63;;
56267;SDS011;42175;46.930;9.532;2022-12-20T16:51:24;17.73;;;3.20;;
56267;SDS011;42175;46.930;9.532;2022-12-20T16:54:05;11.27;;;3.22;;
56267;SDS011;42175;46.930;9.532;2022-12-20T16:56:36;14.65;;;3.80;;
56267;SDS011;42175;46.930;9.532;2022-12-20T16:59:02;23.67;;;4.47;;
56267;SDS011;42175;46.930;9.532;2022-12-20T17:01:32;14.73;;;3.65;;
56267;SDS011;42175;46.930;9.532;2022-12-20T17:04:00;19.98;;;4.38;;
56267;SDS011;42175;46.930;9.532;2022-12-20T17:06:26;25.98;;;5.03;;
56267;SDS011;42175;46.930;9.532;2022-12-20T17:08:53;27.05;;;8.10;;
56267;SDS011;42175;46.930;9.532;2022-12-20T17:13:47;30.05;;;8.88;;
56267;SDS011;42175;46.930;9.532;2022-12-20T17:16:14;20.92;;;7.88;;
56267;SDS011;42175;46.930;9.532;2022-12-20T17:18:41;20.15;;;7.15;;
56267;SDS011;42175;46.930;9.532;2022-12-20T17:23:43;21.00;;;9.23;;
56267;SDS011;42175;46.930;9.532;2022-12-20T17:26:14;19.88;;;8.43;;
56267;SDS011;42175;46.930;9.532;2022-12-20T17:28:41;18.77;;;7.30;;
56267;SDS011;42175;46.930;9.532;2022-12-20T17:33:50;20.20;;;8.43;;
56267;SDS011;42175;46.930;9.532;2022-12-20T17:36:16;26.17;;;7.00;;
56267;SDS011;42175;46.930;9.532;2022-12-20T17:38:43;17.63;;;7.43;;